Time;durP1;ratioP1;P1;durP2;ratioP2;P2;SDS_P1;SDS_P2;PMS_P1;PMS_P2;Temp;Humidity;BMP_temperature;BMP_pressure;BME280_temperature;BME280_humidity;BME280_pressure;Samples;Min_cycle;Max_cycle;Signal;HPM_P1;HPM_P2
2021/11/09 00:00:43;;;;;;;11.47;4.13;;;5.80;99.90;;;;;;5010258;28;20112;-74
2021/11/09 00:03:10;;;;;;;10.87;3.80;;;5.70;99.90;;;;;;5009606;28;20029;-74
2021/11/09 00:05:55;;;;;;;12.60;3.73;;;5.70;99.90;;;;;;4994162;28;20018;-74
2021/11/09 00:08:24;;;;;;;10.57;4.43;;;5.70;99.90;;;;;;5008598;28;20039;-74
2021/11/09 00:10:51;;;;;;;8.07;3.67;;;5.60;99.90;;;;;;4993634;28;20487;-76
2021/11/09 00:13:21;;;;;;;10.23;3.80;;;5.60;99.90;;;;;;4992091;28;20021;-74
2021/11/09 00:15:47;;;;;;;11.43;3.93;;;5.60;99.90;;;;;;4993741;28;20109;-74
2021/11/09 00:18:13;;;;;;;11.00;4.40;;;5.50;99.90;;;;;;4993250;28;20041;-74
2021/11/09 00:20:40;;;;;;;12.63;4.20;;;5.50;99.90;;;;;;4995227;28;20026;-74
2021/11/09 00:23:07;;;;;;;11.60;4.63;;;5.50;99.90;;;;;;4994482;28;20029;-74
2021/11/09 00:25:35;;;;;;;9.97;4.17;;;5.40;99.90;;;;;;4991597;28;20022;-74
2021/11/09 00:28:02;;;;;;;12.10;4.43;;;5.40;99.90;;;;;;4993295;28;20023;-75
2021/11/09 00:30:30;;;;;;;7.07;3.73;;;5.40;99.90;;;;;;4995369;28;20040;-76
2021/11/09 00:32:56;;;;;;;8.50;4.10;;;5.30;99.90;;;;;;5010517;28;20018;-76
2021/11/09 00:35:25;;;;;;;8.53;3.83;;;5.30;99.90;;;;;;4995856;28;20022;-74
2021/11/09 00:37:53;;;;;;;8.37;4.30;;;5.30;99.90;;;;;;4994731;28;20058;-75
2021/11/09 00:40:22;;;;;;;11.53;3.83;;;5.30;99.90;;;;;;5009640;28;20025;-74
2021/11/09 00:42:48;;;;;;;10.67;3.97;;;5.40;99.90;;;;;;5008723;28;20033;-74
2021/11/09 00:45:15;;;;;;;8.47;4.07;;;5.30;99.90;;;;;;4994165;28;20594;-73
2021/11/09 00:47:41;;;;;;;9.70;3.87;;;5.30;99.90;;;;;;4994514;28;20028;-74
2021/11/09 00:50:08;;;;;;;7.90;4.30;;;5.20;99.90;;;;;;4991153;28;20030;-73
2021/11/09 00:52:34;;;;;;;9.17;3.47;;;5.10;99.90;;;;;;4993856;28;20022;-73
2021/11/09 00:55:04;;;;;;;8.93;3.60;;;5.10;99.90;;;;;;4992987;28;20027;-74
2021/11/09 00:57:30;;;;;;;8.50;4.00;;;5.10;99.90;;;;;;4993232;28;20023;-74
2021/11/09 00:59:56;;;;;;;8.33;3.47;;;5.20;99.90;;;;;;4993260;28;20085;-74
2021/11/09 01:02:22;;;;;;;11.13;3.73;;;5.10;99.90;;;;;;4992850;28;20482;-74
2021/11/09 01:04:48;;;;;;;6.33;3.63;;;5.10;99.90;;;;;;5008546;28;20039;-74
2021/11/09 01:07:13;;;;;;;9.10;4.10;;;5.10;99.90;;;;;;4992339;28;20033;-74
2021/11/09 01:09:39;;;;;;;8.87;3.50;;;5.10;99.90;;;;;;4995184;28;20044;-73
2021/11/09 01:12:10;;;;;;;11.13;4.13;;;5.00;99.90;;;;;;4992891;28;20019;-74
2021/11/09 01:14:37;;;;;;;8.23;2.70;;;5.00;99.90;;;;;;4993874;28;20034;-74
2021/11/09 01:17:04;;;;;;;9.67;3.83;;;4.90;99.90;;;;;;5011556;28;20029;-74
2021/11/09 01:19:32;;;;;;;9.83;3.83;;;4.90;99.90;;;;;;5011475;28;20032;-74
2021/11/09 01:21:59;;;;;;;11.47;3.80;;;4.90;99.90;;;;;;5009800;28;20034;-74
2021/11/09 01:24:24;;;;;;;10.67;4.03;;;5.00;99.90;;;;;;5010406;28;20121;-74
2021/11/09 01:26:50;;;;;;;8.40;3.97;;;5.00;99.90;;;;;;4995198;28;20421;-74
2021/11/09 01:29:16;;;;;;;11.77;3.97;;;5.00;99.90;;;;;;5009637;28;20084;-74
2021/11/09 01:31:42;;;;;;;7.53;3.80;;;5.00;99.90;;;;;;5010210;28;20096;-74
2021/11/09 01:34:09;;;;;;;11.67;4.60;;;5.00;99.90;;;;;;5009665;28;20031;-74
2021/11/09 01:36:34;;;;;;;11.30;3.93;;;5.00;99.90;;;;;;5009887;28;20023;-74
2021/11/09 01:39:01;;;;;;;14.50;3.70;;;5.00;99.90;;;;;;5009314;28;20081;-75
2021/11/09 01:41:28;;;;;;;10.70;3.70;;;5.10;99.90;;;;;;5010040;28;20526;-73
2021/11/09 01:43:55;;;;;;;6.93;3.53;;;5.10;99.90;;;;;;5009331;28;20026;-76
2021/11/09 01:46:21;;;;;;;8.43;4.00;;;5.20;99.90;;;;;;5010291;28;20026;-74
2021/11/09 01:48:47;;;;;;;12.10;3.63;;;5.20;99.90;;;;;;5010022;28;20053;-74
2021/11/09 01:51:17;;;;;;;8.17;3.77;;;5.20;99.90;;;;;;4994545;28;20360;-74
2021/11/09 01:53:46;;;;;;;8.70;4.13;;;5.20;99.90;;;;;;5009396;28;20030;-74
2021/11/09 01:56:15;;;;;;;10.37;4.13;;;5.10;99.90;;;;;;5009207;28;20022;-74
2021/11/09 01:58:41;;;;;;;10.20;4.23;;;5.10;99.90;;;;;;5009778;28;20037;-74
2021/11/09 02:01:13;;;;;;;9.87;4.10;;;5.10;99.90;;;;;;5008816;28;20046;-74
2021/11/09 02:03:42;;;;;;;10.93;4.80;;;5.00;99.90;;;;;;5009805;28;20026;-74
2021/11/09 02:06:09;;;;;;;9.77;4.30;;;5.00;99.90;;;;;;5008888;28;20033;-74
2021/11/09 02:08:35;;;;;;;8.57;4.00;;;4.90;99.90;;;;;;5009683;28;20052;-74
2021/11/09 02:11:01;;;;;;;7.93;4.00;;;4.90;99.90;;;;;;4993855;28;20440;-74
2021/11/09 02:13:27;;;;;;;6.83;3.83;;;4.90;99.90;;;;;;5009397;28;20104;-74
2021/11/09 02:15:54;;;;;;;10.27;4.20;;;4.80;99.90;;;;;;4994222;28;20026;-74
2021/11/09 02:18:21;;;;;;;8.83;4.10;;;4.90;99.90;;;;;;5008695;28;20030;-74
2021/11/09 02:20:56;;;;;;;9.17;4.13;;;4.80;99.90;;;;;;4994234;28;20097;-74
2021/11/09 02:23:22;;;;;;;8.23;3.90;;;4.80;99.90;;;;;;5009785;28;20022;-74
2021/11/09 02:25:48;;;;;;;8.97;3.87;;;4.70;99.90;;;;;;5008923;28;20026;-74
2021/11/09 02:28:14;;;;;;;14.13;4.33;;;4.60;99.90;;;;;;4993520;28;20088;-74
2021/11/09 02:30:40;;;;;;;8.73;4.13;;;4.60;99.90;;;;;;5009054;28;20031;-74
2021/11/09 02:33:06;;;;;;;9.97;4.20;;;4.60;99.90;;;;;;5002401;28;20026;-75
2021/11/09 02:35:31;;;;;;;11.87;4.27;;;4.50;99.90;;;;;;4993743;28;20026;-74
2021/11/09 02:37:58;;;;;;;13.13;4.60;;;4.50;99.90;;;;;;4994131;28;20455;-75
2021/11/09 02:40:24;;;;;;;12.23;4.57;;;4.50;99.90;;;;;;4992583;28;20030;-75
2021/11/09 02:42:57;;;;;;;11.03;4.60;;;4.50;99.90;;;;;;4992650;28;20026;-74
2021/11/09 02:46:34;;;;;;;11.40;4.23;;;4.50;99.90;;;;;;4992871;28;20023;-75
2021/11/09 02:48:32;;;;;;;9.50;4.10;;;4.40;99.90;;;;;;4995962;28;20531;-75
2021/11/09 02:51:11;;;;;;;9.97;4.20;;;4.50;99.90;;;;;;5008450;28;20022;-75
2021/11/09 02:53:42;;;;;;;8.90;3.80;;;4.50;99.90;;;;;;5008807;28;20026;-74
2021/11/09 02:56:32;;;;;;;10.00;4.10;;;4.50;99.90;;;;;;5008166;28;20515;-74
2021/11/09 02:59:26;;;;;;;10.77;4.03;;;4.50;99.90;;;;;;5007940;28;20284;-75
2021/11/09 03:04:32;;;;;;;12.90;4.43;;;4.50;99.90;;;;;;4993270;28;20035;-75
2021/11/09 03:07:06;;;;;;;14.87;4.47;;;4.50;99.90;;;;;;4992870;28;20026;-75
2021/11/09 03:12:16;;;;;;;10.70;4.57;;;4.40;99.90;;;;;;4992728;28;20029;-74
2021/11/09 03:14:43;;;;;;;12.50;5.00;;;4.40;99.90;;;;;;5008474;28;20019;-73
2021/11/09 03:17:36;;;;;;;13.97;4.63;;;4.50;99.90;;;;;;5008002;28;20371;-73
2021/11/09 03:20:00;;;;;;;11.27;4.60;;;4.50;99.90;;;;;;4993456;28;20030;-74
2021/11/09 03:44:43;;;;;;;7.70;3.77;;;4.30;99.90;;;;;;4992571;28;20038;-73
2021/11/09 03:47:13;;;;;;;9.13;3.70;;;4.20;99.90;;;;;;5007700;28;20033;-74
2021/11/09 03:49:39;;;;;;;12.57;4.57;;;4.20;99.90;;;;;;5008150;28;20033;-74
2021/11/09 03:52:15;;;;;;;9.50;4.43;;;4.20;99.90;;;;;;5007644;28;20366;-73
2021/11/09 03:54:42;;;;;;;9.43;4.20;;;4.10;99.90;;;;;;4993099;28;20022;-73
2021/11/09 03:57:17;;;;;;;8.03;4.20;;;4.20;99.90;;;;;;5007619;28;20084;-74
2021/11/09 04:04:51;;;;;;;11.80;4.73;;;4.10;99.90;;;;;;4992846;28;20093;-74
2021/11/09 04:23:36;;;;;;;7.73;4.30;;;3.90;99.90;;;;;;4995887;28;20034;-74
2021/11/09 04:31:25;;;;;;;9.53;4.30;;;3.90;99.90;;;;;;4995710;28;20018;-74
2021/11/09 05:11:09;;;;;;;10.93;4.33;;;3.60;99.90;;;;;;4993066;28;20105;-75
2021/11/09 05:13:35;;;;;;;12.70;4.10;;;3.60;99.90;;;;;;5009750;28;20022;-74
2021/11/09 05:16:01;;;;;;;13.43;4.33;;;3.70;99.90;;;;;;4993360;28;20072;-74
2021/11/09 05:18:26;;;;;;;8.97;4.53;;;3.60;99.90;;;;;;4992743;28;20117;-74
2021/11/09 05:20:53;;;;;;;10.77;4.80;;;3.60;99.90;;;;;;4992344;28;20042;-74
2021/11/09 05:23:18;;;;;;;10.40;4.40;;;3.60;99.90;;;;;;4993929;28;20031;-74
2021/11/09 05:25:47;;;;;;;9.67;4.30;;;3.60;99.90;;;;;;4994606;28;20042;-74
2021/11/09 05:28:13;;;;;;;12.03;5.10;;;3.60;99.90;;;;;;4993432;28;20019;-75
2021/11/09 05:30:46;;;;;;;11.50;4.77;;;3.60;99.90;;;;;;4992884;28;20029;-74
2021/11/09 05:33:11;;;;;;;9.07;4.77;;;3.50;99.90;;;;;;5008845;28;20037;-74
2021/11/09 05:35:37;;;;;;;11.43;5.00;;;3.50;99.90;;;;;;4994256;28;20018;-74
2021/11/09 05:38:04;;;;;;;11.20;4.80;;;3.50;99.90;;;;;;4994034;28;20025;-75
2021/11/09 05:40:35;;;;;;;10.83;4.50;;;3.50;99.90;;;;;;4992502;28;20029;-74
2021/11/09 05:43:02;;;;;;;17.77;5.43;;;3.40;99.90;;;;;;4993994;28;20047;-75
2021/11/09 05:45:29;;;;;;;8.93;4.70;;;3.40;99.90;;;;;;5010306;28;20033;-75
2021/11/09 05:47:56;;;;;;;10.57;4.40;;;3.40;99.90;;;;;;4992991;28;20022;-74
2021/11/09 05:50:22;;;;;;;10.50;4.97;;;3.40;99.90;;;;;;4992995;28;20038;-74
2021/11/09 05:52:48;;;;;;;11.73;5.10;;;3.40;99.90;;;;;;5007972;28;20022;-74
2021/11/09 05:55:14;;;;;;;12.77;5.80;;;3.40;99.90;;;;;;4993469;28;20021;-74
2021/11/09 05:57:40;;;;;;;13.27;5.40;;;3.40;99.90;;;;;;4993957;28;20049;-74
2021/11/09 06:00:07;;;;;;;9.70;5.03;;;3.40;99.90;;;;;;4991717;28;20143;-74
2021/11/09 06:02:33;;;;;;;10.60;4.50;;;3.40;99.90;;;;;;4992229;28;20123;-74
2021/11/09 06:04:58;;;;;;;10.70;4.53;;;3.40;99.90;;;;;;4991860;28;20517;-75
2021/11/09 06:07:24;;;;;;;10.77;5.00;;;3.40;99.90;;;;;;4992960;28;20030;-74
2021/11/09 06:09:50;;;;;;;9.83;4.67;;;3.50;99.90;;;;;;4990846;28;20034;-74
2021/11/09 06:12:16;;;;;;;14.90;5.27;;;3.50;99.90;;;;;;4991581;28;20022;-75
2021/11/09 06:14:41;;;;;;;14.50;5.43;;;3.50;99.90;;;;;;4991698;28;20044;-75
2021/11/09 06:17:07;;;;;;;10.27;5.87;;;3.50;99.90;;;;;;4991489;28;20038;-74
2021/11/09 06:19:33;;;;;;;13.50;5.43;;;3.50;99.90;;;;;;4991612;28;20034;-75
2021/11/09 06:22:00;;;;;;;11.87;5.43;;;3.60;99.90;;;;;;5007535;28;20117;-76
2021/11/09 06:24:25;;;;;;;12.93;5.87;;;3.50;99.90;;;;;;5007502;28;20450;-74
2021/11/09 06:26:52;;;;;;;16.40;6.07;;;3.50;99.90;;;;;;4992696;28;20030;-74
2021/11/09 06:29:19;;;;;;;12.70;5.70;;;3.50;99.90;;;;;;4990999;28;20108;-73
2021/11/09 06:31:45;;;;;;;11.40;6.27;;;3.50;99.90;;;;;;4991450;28;20191;-73
2021/11/09 06:34:11;;;;;;;12.50;5.63;;;3.40;99.90;;;;;;4990466;28;20634;-74
2021/11/09 06:36:36;;;;;;;12.87;5.90;;;3.40;99.90;;;;;;4991333;28;20064;-74
2021/11/09 06:39:04;;;;;;;13.23;6.07;;;3.40;99.90;;;;;;4993032;28;20038;-74
2021/11/09 06:41:29;;;;;;;12.70;6.13;;;3.40;99.90;;;;;;4990910;28;20027;-74
2021/11/09 06:43:56;;;;;;;12.57;6.23;;;3.40;99.90;;;;;;4992749;28;20038;-74
2021/11/09 06:46:22;;;;;;;11.63;5.63;;;3.40;99.90;;;;;;4990909;28;20018;-74
2021/11/09 06:48:48;;;;;;;15.30;5.60;;;3.40;99.90;;;;;;4991657;28;20027;-75
2021/11/09 06:51:15;;;;;;;14.10;6.23;;;3.30;99.90;;;;;;4991091;28;20033;-74
2021/11/09 06:53:41;;;;;;;18.47;6.37;;;3.40;99.90;;;;;;4993051;28;20026;-74
2021/11/09 06:56:06;;;;;;;16.50;6.83;;;3.30;99.90;;;;;;4990344;28;20112;-74
2021/11/09 06:58:34;;;;;;;10.77;5.87;;;3.30;99.90;;;;;;4991564;28;20086;-74
2021/11/09 07:01:00;;;;;;;12.87;6.13;;;3.40;99.90;;;;;;4991374;28;20436;-74
2021/11/09 07:03:25;;;;;;;12.43;5.77;;;3.40;99.90;;;;;;4991201;28;20027;-74
2021/11/09 07:05:51;;;;;;;13.87;5.70;;;3.40;99.90;;;;;;4990462;28;20033;-74
2021/11/09 07:08:17;;;;;;;12.47;5.77;;;3.40;99.90;;;;;;4991075;28;20113;-74
2021/11/09 07:10:44;;;;;;;15.27;6.47;;;3.40;99.90;;;;;;4990539;28;20073;-74
2021/11/09 07:13:11;;;;;;;11.50;5.70;;;3.50;99.90;;;;;;4990423;28;20022;-74
2021/11/09 07:15:36;;;;;;;16.17;7.00;;;3.50;99.90;;;;;;4990790;28;20034;-74
2021/11/09 07:18:02;;;;;;;16.97;6.77;;;3.50;99.90;;;;;;4991967;28;20352;-74
2021/11/09 07:20:28;;;;;;;18.93;8.87;;;3.50;99.90;;;;;;4990827;28;20018;-74
2021/11/09 07:22:54;;;;;;;15.33;6.40;;;3.40;99.90;;;;;;4991289;28;20029;-74
2021/11/09 07:25:20;;;;;;;12.77;5.83;;;3.50;99.90;;;;;;4990738;28;20030;-74
2021/11/09 07:27:46;;;;;;;15.70;6.40;;;3.50;99.90;;;;;;4991796;28;20380;-74
2021/11/09 07:30:12;;;;;;;15.20;6.13;;;3.50;99.90;;;;;;4990636;28;20030;-74
2021/11/09 07:32:38;;;;;;;17.73;8.03;;;3.60;99.90;;;;;;4992329;28;20023;-74
2021/11/09 07:35:09;;;;;;;13.70;5.83;;;3.60;99.90;;;;;;4990757;28;20030;-74
2021/11/09 07:37:35;;;;;;;19.37;6.53;;;3.60;99.90;;;;;;4990435;28;20033;-74
2021/11/09 07:40:01;;;;;;;12.50;6.43;;;3.60;99.90;;;;;;4991200;28;20121;-74
2021/11/09 07:42:26;;;;;;;12.40;5.77;;;3.60;99.90;;;;;;4990567;28;20440;-74
2021/11/09 07:44:53;;;;;;;14.43;6.07;;;3.60;99.90;;;;;;4992510;28;20420;-74
2021/11/09 07:47:19;;;;;;;13.10;5.90;;;3.60;99.90;;;;;;4990191;28;20261;-74
2021/11/09 07:49:45;;;;;;;11.17;5.80;;;3.70;99.90;;;;;;4991104;28;20034;-75
2021/11/09 07:52:12;;;;;;;14.53;5.97;;;3.70;99.90;;;;;;4991753;28;20022;-74
2021/11/09 07:54:45;;;;;;;11.17;5.50;;;3.80;99.90;;;;;;4994900;28;20041;-74
2021/11/09 07:57:12;;;;;;;13.23;5.80;;;3.90;99.90;;;;;;4994158;28;20050;-74
2021/11/09 07:59:55;;;;;;;16.97;6.80;;;4.00;99.90;;;;;;4987653;28;20493;-75
2021/11/09 08:02:44;;;;;;;12.77;5.87;;;3.90;99.90;;;;;;4993420;28;20517;-74
2021/11/09 08:05:09;;;;;;;15.83;6.20;;;3.90;99.90;;;;;;4994745;28;20356;-75
2021/11/09 08:08:02;;;;;;;15.40;6.43;;;4.00;99.90;;;;;;4994166;28;20104;-75
2021/11/09 08:10:21;;;;;;;20.27;6.27;;;4.00;99.90;;;;;;4994248;28;20034;-74
2021/11/09 08:12:46;;;;;;;16.73;6.37;;;4.10;99.90;;;;;;4994594;28;20344;-74
2021/11/09 08:15:12;;;;;;;17.20;6.73;;;4.10;99.90;;;;;;4993621;28;20482;-74
2021/11/09 08:17:37;;;;;;;12.83;5.43;;;4.10;99.90;;;;;;4994000;28;20029;-74
2021/11/09 08:20:03;;;;;;;17.70;6.27;;;4.20;99.90;;;;;;4993970;28;20034;-74
2021/11/09 08:22:31;;;;;;;17.77;6.23;;;4.30;99.90;;;;;;4993671;28;20583;-74
2021/11/09 08:24:57;;;;;;;13.70;6.17;;;4.40;99.90;;;;;;4994260;28;20018;-74
2021/11/09 08:27:23;;;;;;;11.17;6.17;;;4.40;99.90;;;;;;4992899;28;20028;-74
2021/11/09 08:29:49;;;;;;;13.13;6.10;;;4.40;99.90;;;;;;4993893;28;20030;-75
2021/11/09 08:32:16;;;;;;;14.00;6.30;;;4.40;99.90;;;;;;4995063;28;20026;-75
2021/11/09 08:34:42;;;;;;;14.17;6.33;;;4.50;99.90;;;;;;4999126;28;20027;-74
2021/11/09 08:37:08;;;;;;;14.50;6.40;;;4.60;99.90;;;;;;4993508;28;20049;-75
2021/11/09 08:39:38;;;;;;;12.63;6.00;;;4.60;99.90;;;;;;4994181;28;20519;-75
2021/11/09 08:44:44;;;;;;;12.77;6.23;;;4.80;99.90;;;;;;4995846;28;20023;-75
2021/11/09 08:47:14;;;;;;;11.70;6.07;;;4.90;99.90;;;;;;4993833;28;20022;-75
2021/11/09 08:49:39;;;;;;;14.23;6.10;;;4.90;99.90;;;;;;4994173;28;20033;-75
2021/11/09 08:52:11;;;;;;;10.70;5.30;;;5.00;99.90;;;;;;4993733;28;20022;-74
2021/11/09 08:54:37;;;;;;;15.27;6.50;;;5.10;99.90;;;;;;4996330;28;20101;-75
2021/11/09 08:57:21;;;;;;;12.47;5.70;;;5.10;99.90;;;;;;4995256;28;20077;-75
2021/11/09 09:05:11;;;;;;;13.83;6.17;;;5.30;99.90;;;;;;4994094;28;20022;-76
2021/11/09 09:07:37;;;;;;;12.83;6.17;;;5.30;99.90;;;;;;4994259;28;20076;-74
2021/11/09 09:10:09;;;;;;;17.57;7.03;;;5.30;99.90;;;;;;4995815;28;20030;-75
2021/11/09 09:12:36;;;;;;;11.90;5.93;;;5.40;99.90;;;;;;4996759;28;20058;-75
2021/11/09 09:15:04;;;;;;;14.93;6.03;;;5.50;99.90;;;;;;4994032;28;20035;-76
2021/11/09 09:17:30;;;;;;;14.40;6.33;;;5.60;99.90;;;;;;4994538;28;20444;-74
2021/11/09 09:20:10;;;;;;;12.97;5.87;;;5.70;99.90;;;;;;4994411;28;20030;-74
2021/11/09 09:22:41;;;;;;;11.80;6.30;;;5.70;99.90;;;;;;4994482;28;20101;-74
2021/11/09 09:25:18;;;;;;;15.90;5.67;;;5.80;99.90;;;;;;4993119;28;20022;-75
2021/11/09 09:28:11;;;;;;;13.47;6.10;;;5.80;99.90;;;;;;4994472;28;20101;-75
2021/11/09 09:31:06;;;;;;;13.10;5.73;;;5.90;99.90;;;;;;4993933;28;20376;-74
2021/11/09 09:52:30;;;;;;;14.37;5.90;;;6.50;99.90;;;;;;4994840;28;20117;-74
2021/11/09 09:57:27;;;;;;;9.37;4.90;;;6.50;99.90;;;;;;4994429;28;20037;-74
2021/11/09 09:59:54;;;;;;;16.53;4.97;;;6.60;99.90;;;;;;5009404;28;20050;-75
2021/11/09 10:02:25;;;;;;;13.73;5.00;;;6.70;99.90;;;;;;5008147;28;20347;-74
2021/11/09 10:04:53;;;;;;;8.88;4.75;;;6.80;99.90;;;;;;4992450;28;20113;-75
2021/11/09 10:07:33;;;;;;;8.00;4.37;;;6.90;99.90;;;;;;4986029;28;20121;-75
2021/11/09 10:10:12;;;;;;;8.90;4.63;;;7.00;99.90;;;;;;4989768;28;20053;-76
2021/11/09 10:12:55;;;;;;;11.67;4.57;;;7.00;99.90;;;;;;4989129;28;20034;-77
2021/11/09 10:15:26;;;;;;;8.95;4.15;;;7.20;99.90;;;;;;4978167;28;20057;-78
2021/11/09 10:18:00;;;;;;;8.52;4.10;;;7.20;99.70;;;;;;4992150;28;20033;-77
2021/11/09 10:20:34;;;;;;;9.93;4.00;;;7.20;99.50;;;;;;4988562;28;20113;-77
2021/11/09 10:23:04;;;;;;;7.90;3.93;;;7.20;99.70;;;;;;4991224;28;20132;-77
2021/11/09 10:25:32;;;;;;;9.97;3.80;;;7.40;99.10;;;;;;4989105;28;20065;-76
2021/11/09 10:28:08;;;;;;;7.22;3.45;;;7.40;98.60;;;;;;4990498;28;20033;-77
2021/11/09 10:30:35;;;;;;;8.73;3.40;;;7.40;98.90;;;;;;4990675;28;20053;-77
2021/11/09 10:33:01;;;;;;;6.40;3.50;;;7.40;98.90;;;;;;4991782;28;20042;-76
2021/11/09 10:35:28;;;;;;;7.05;3.60;;;7.50;99.10;;;;;;4990621;28;20019;-77
2021/11/09 10:37:56;;;;;;;10.40;4.28;;;7.50;99.30;;;;;;4991986;28;20069;-78
2021/11/09 10:40:23;;;;;;;10.03;3.37;;;7.60;99.90;;;;;;4992936;28;20038;-78
2021/11/09 10:42:53;;;;;;;11.60;3.40;;;7.70;98.80;;;;;;5008440;28;20042;-79
2021/11/09 10:45:26;;;;;;;7.03;3.13;;;7.90;98.30;;;;;;4989577;28;20109;-78
2021/11/09 10:47:54;;;;;;;6.57;3.07;;;8.10;97.50;;;;;;4991481;28;20073;-78
2021/11/09 10:50:24;;;;;;;4.30;2.33;;;8.30;97.40;;;;;;4989568;28;20026;-78
2021/11/09 11:06:41;;;;;;;5.97;2.80;;;8.80;95.50;;;;;;4989786;28;20044;-77
2021/11/09 11:09:07;;;;;;;4.63;2.40;;;8.90;94.00;;;;;;4989763;28;20487;-77
2021/11/09 11:11:40;;;;;;;4.47;2.22;;;8.90;94.20;;;;;;4989899;28;20049;-77
2021/11/09 11:14:05;;;;;;;5.68;2.17;;;9.00;94.20;;;;;;4986764;28;20032;-77
2021/11/09 11:16:46;;;;;;;5.43;1.83;;;9.10;93.70;;;;;;4985356;28;20018;-78
2021/11/09 11:19:14;;;;;;;4.43;1.63;;;9.00;93.30;;;;;;4987474;28;20030;-78
2021/11/09 11:21:40;;;;;;;5.75;2.35;;;9.20;93.90;;;;;;4984645;28;20425;-77
2021/11/09 11:24:09;;;;;;;4.88;1.98;;;9.20;93.70;;;;;;4990572;28;20037;-76
2021/11/09 11:26:37;;;;;;;7.18;2.38;;;9.20;93.30;;;;;;4991752;28;20364;-76
2021/11/09 11:29:03;;;;;;;4.65;1.98;;;9.20;93.30;;;;;;5010899;28;20034;-76
2021/11/09 11:31:29;;;;;;;4.45;2.08;;;9.30;93.40;;;;;;4995772;28;20033;-76
2021/11/09 11:33:56;;;;;;;8.35;2.22;;;9.30;93.10;;;;;;4995369;28;20034;-76
2021/11/09 11:36:23;;;;;;;4.72;1.90;;;9.40;93.60;;;;;;5010300;28;20116;-75
2021/11/09 11:38:53;;;;;;;4.55;1.92;;;9.40;93.10;;;;;;4995122;28;20044;-77
2021/11/09 11:41:20;;;;;;;6.85;2.13;;;9.50;93.00;;;;;;4994974;28;20637;-76
2021/11/09 11:43:46;;;;;;;4.80;2.75;;;9.60;92.90;;;;;;4995219;28;20030;-76
2021/11/09 11:46:13;;;;;;;7.13;1.90;;;9.70;92.70;;;;;;4994320;28;20387;-75
2021/11/09 11:48:58;;;;;;;5.05;2.05;;;9.90;92.40;;;;;;5008486;28;20030;-75
2021/11/09 11:51:25;;;;;;;6.57;2.10;;;10.10;92.40;;;;;;4993126;28;20025;-76
2021/11/09 11:53:54;;;;;;;7.90;1.90;;;10.20;91.60;;;;;;5009974;28;20035;-75
2021/11/09 11:56:21;;;;;;;6.25;1.70;;;10.30;90.80;;;;;;4993945;28;20022;-76
2021/11/09 11:58:47;;;;;;;4.05;1.50;;;10.50;90.80;;;;;;4995143;28;20039;-76
2021/11/09 12:01:33;;;;;;;6.45;1.30;;;10.70;90.00;;;;;;4996153;28;20045;-75
2021/11/09 12:03:58;;;;;;;3.85;1.48;;;11.00;88.20;;;;;;4994686;28;20042;-76
2021/11/09 12:06:25;;;;;;;5.10;1.48;;;11.10;85.30;;;;;;4995741;28;20035;-74
2021/11/09 12:08:52;;;;;;;5.20;1.73;;;11.30;84.80;;;;;;4994237;28;20038;-74
2021/11/09 12:11:40;;;;;;;5.32;1.60;;;11.40;84.20;;;;;;4994175;28;20026;-75
2021/11/09 12:14:09;;;;;;;6.93;1.83;;;11.60;81.70;;;;;;4988258;28;20030;-76
2021/11/09 12:16:46;;;;;;;2.85;1.38;;;11.70;81.00;;;;;;4994198;28;20030;-76
2021/11/09 12:19:34;;;;;;;2.30;1.60;;;11.80;79.70;;;;;;4979968;28;20042;-75
2021/11/09 12:22:43;;;;;;;4.30;1.75;;;11.90;78.60;;;;;;4995533;28;20117;-75
2021/11/09 12:25:15;;;;;;;8.02;2.03;;;12.00;77.50;;;;;;4994951;28;20367;-74
2021/11/09 12:27:46;;;;;;;7.18;1.92;;;12.10;77.90;;;;;;4994448;28;20094;-74
2021/11/09 12:30:31;;;;;;;4.13;1.85;;;12.30;77.50;;;;;;4995647;28;20030;-75
2021/11/09 12:33:14;;;;;;;5.68;2.67;;;12.40;78.50;;;;;;5010436;28;20041;-75
2021/11/09 12:35:44;;;;;;;6.05;2.00;;;12.50;76.50;;;;;;4980522;28;20022;-75
2021/11/09 12:38:20;;;;;;;4.43;1.95;;;12.60;75.40;;;;;;4987817;28;20506;-74
2021/11/09 12:40:48;;;;;;;7.60;1.90;;;12.90;74.40;;;;;;4990748;28;20038;-74
2021/11/09 12:43:32;;;;;;;5.85;2.15;;;13.30;72.40;;;;;;4989563;28;20033;-74
2021/11/09 12:46:09;;;;;;;5.55;1.73;;;13.80;70.10;;;;;;4989833;28;20053;-74
2021/11/09 12:48:48;;;;;;;5.50;1.90;;;14.30;68.90;;;;;;4989092;28;20560;-75
2021/11/09 12:51:15;;;;;;;8.82;2.00;;;14.60;67.40;;;;;;4990795;28;20022;-74
2021/11/09 12:53:42;;;;;;;5.55;1.63;;;14.70;67.10;;;;;;4990070;28;20022;-76
2021/11/09 12:56:15;;;;;;;6.60;2.05;;;14.60;66.30;;;;;;4990555;28;20031;-75
2021/11/09 12:58:49;;;;;;;5.47;1.80;;;14.40;65.80;;;;;;4989661;28;20511;-74
2021/11/09 13:04:01;;;;;;;6.10;1.85;;;14.50;66.50;;;;;;4991272;28;20042;-75
2021/11/09 13:06:44;;;;;;;6.25;2.20;;;14.80;64.70;;;;;;4988838;28;20037;-75
2021/11/09 13:09:25;;;;;;;4.90;1.80;;;15.20;62.90;;;;;;4990235;28;20034;-75
2021/11/09 13:11:58;;;;;;;8.20;2.00;;;15.60;61.80;;;;;;5004066;28;20030;-75
2021/11/09 13:14:32;;;;;;;4.57;1.58;;;15.80;61.20;;;;;;4989415;28;20118;-74
2021/11/09 13:16:59;;;;;;;6.03;1.98;;;16.10;58.80;;;;;;4992662;28;20062;-75
2021/11/09 13:19:27;;;;;;;4.65;1.63;;;16.20;59.00;;;;;;4992650;28;20034;-74
2021/11/09 13:22:14;;;;;;;3.88;1.73;;;16.10;59.70;;;;;;4991889;28;20464;-75
2021/11/09 13:24:43;;;;;;;6.53;1.90;;;15.90;59.10;;;;;;4992251;28;20152;-74
2021/11/09 13:27:15;;;;;;;4.82;1.75;;;15.80;60.40;;;;;;4976479;28;20098;-75
2021/11/09 13:29:43;;;;;;;;;;;15.60;60.10;;;;;;4992268;28;20465;-74
2021/11/09 13:32:11;;;;;;;6.60;1.45;;;15.40;58.80;;;;;;4991983;28;19906;-74
2021/11/09 13:34:38;;;;;;;7.28;1.88;;;15.20;60.90;;;;;;4989670;28;20033;-74
2021/11/09 13:37:04;;;;;;;3.67;1.50;;;15.00;61.60;;;;;;4990158;28;20487;-75
2021/11/09 13:39:29;;;;;;;6.00;1.75;;;14.70;62.20;;;;;;4989606;28;20030;-74
2021/11/09 13:41:55;;;;;;;5.30;1.50;;;14.50;62.90;;;;;;4991808;28;20026;-74
2021/11/09 13:44:21;;;;;;;3.50;1.65;;;14.20;63.30;;;;;;4991071;28;20526;-75
2021/11/09 13:46:47;;;;;;;5.53;1.80;;;13.90;64.10;;;;;;4990058;28;20129;-75
2021/11/09 13:49:15;;;;;;;3.80;1.80;;;13.70;65.30;;;;;;4991133;28;20030;-75
2021/11/09 13:51:48;;;;;;;4.53;1.80;;;13.50;66.50;;;;;;4989390;28;20068;-75
2021/11/09 13:54:24;;;;;;;6.40;1.55;;;13.30;67.30;;;;;;4989735;28;20023;-75
2021/11/09 13:56:52;;;;;;;7.40;1.60;;;13.30;68.40;;;;;;4984211;28;20499;-75
2021/11/09 13:59:28;;;;;;;3.58;1.40;;;13.10;68.10;;;;;;4988973;28;20050;-77
2021/11/09 14:01:59;;;;;;;8.98;1.73;;;13.00;68.80;;;;;;4991987;28;20101;-75
2021/11/09 14:07:39;;;;;;;4.57;1.40;;;12.90;68.70;;;;;;4991854;28;20039;-74
2021/11/09 14:13:06;;;;;;;6.50;1.33;;;12.70;69.70;;;;;;4991993;28;20038;-74
2021/11/09 14:15:41;;;;;;;3.92;1.40;;;12.50;70.40;;;;;;4990663;28;20392;-75
2021/11/09 14:18:18;;;;;;;3.78;1.30;;;12.40;70.60;;;;;;4991316;28;20023;-75
2021/11/09 14:20:59;;;;;;;2.45;1.20;;;12.40;71.10;;;;;;4989646;28;20498;-75
2021/11/09 14:23:35;;;;;;;6.10;1.27;;;12.20;71.50;;;;;;4989084;28;20451;-75
2021/11/09 14:26:22;;;;;;;3.42;1.30;;;12.10;71.80;;;;;;4991112;28;20085;-75
2021/11/09 14:28:53;;;;;;;3.22;1.13;;;12.00;72.70;;;;;;4989402;28;20034;-75
2021/11/09 14:31:26;;;;;;;3.13;1.15;;;12.00;74.10;;;;;;4988748;28;20026;-75
2021/11/09 14:34:09;;;;;;;8.30;1.20;;;11.90;73.40;;;;;;4990806;28;20027;-74
2021/11/09 14:36:36;;;;;;;2.63;0.90;;;12.00;75.30;;;;;;4988419;28;20117;-74
2021/11/09 14:39:15;;;;;;;2.63;1.02;;;11.90;75.40;;;;;;4988939;28;20045;-75
2021/11/09 14:42:00;;;;;;;2.80;1.20;;;11.80;76.00;;;;;;4990218;28;20034;-74
2021/11/09 14:44:27;;;;;;;2.80;0.98;;;11.80;77.10;;;;;;4990056;28;20364;-74
2021/11/09 14:46:56;;;;;;;5.32;1.00;;;11.80;77.20;;;;;;4989005;28;20054;-73
2021/11/09 14:49:37;;;;;;;3.00;0.90;;;11.70;77.90;;;;;;4989040;28;20037;-74
2021/11/09 14:52:08;;;;;;;2.30;0.80;;;11.60;78.10;;;;;;4989112;28;20093;-74
2021/11/09 14:54:35;;;;;;;3.25;0.93;;;11.50;78.00;;;;;;4988491;28;20026;-74
2021/11/09 14:57:06;;;;;;;3.70;1.05;;;11.40;78.30;;;;;;4988793;28;20039;-74
2021/11/09 14:59:32;;;;;;;4.95;1.20;;;11.30;79.30;;;;;;4987961;28;20053;-75
2021/11/09 15:02:02;;;;;;;4.05;0.95;;;11.30;80.90;;;;;;4987963;28;20539;-77
2021/11/09 15:04:56;;;;;;;3.63;1.02;;;11.10;80.80;;;;;;4988281;28;20051;-74
2021/11/09 15:07:34;;;;;;;3.65;1.02;;;11.10;81.90;;;;;;4974525;28;20031;-74
2021/11/09 15:10:08;;;;;;;4.20;0.90;;;11.10;82.00;;;;;;4987863;28;20112;-74
2021/11/09 15:26:21;;;;;;;1.83;0.90;;;10.80;83.70;;;;;;4990209;28;20050;-75
2021/11/09 15:28:54;;;;;;;2.90;1.00;;;10.70;84.20;;;;;;4988299;28;20418;-75
2021/11/09 15:31:24;;;;;;;1.77;0.80;;;10.70;83.90;;;;;;4989792;28;20022;-75
2021/11/09 15:33:54;;;;;;;3.88;0.88;;;10.60;84.40;;;;;;4989645;28;20464;-74
2021/11/09 15:38:49;;;;;;;3.33;0.80;;;10.60;83.90;;;;;;4988533;28;20598;-74
2021/11/09 15:41:15;;;;;;;2.45;0.90;;;10.50;83.60;;;;;;4989364;28;20026;-75
2021/11/09 15:43:41;;;;;;;2.75;0.88;;;10.40;84.70;;;;;;4987774;28;20053;-75